Time;durP1;ratioP1;P1;durP2;ratioP2;P2;SDS_P1;SDS_P2;PMS_P1;PMS_P2;Temp;Humidity;BMP_temperature;BMP_pressure;BME280_temperature;BME280_humidity;BME280_pressure;Samples;Min_cycle;Max_cycle;Signal;HPM_P1;HPM_P2
2023/05/05 00:02:02;;;;;;;5.97;4.60;;;;;;;15.42;nan;98126.41;4994088;28;20227;-72
2023/05/05 00:04:28;;;;;;;4.90;4.10;;;;;;;15.39;nan;98121.53;4994066;28;20301;-72
2023/05/05 00:06:54;;;;;;;4.87;4.33;;;;;;;15.37;nan;98124.44;4993765;28;20718;-72
2023/05/05 00:09:22;;;;;;;5.40;4.50;;;;;;;15.38;nan;98120.69;4993686;28;20718;-72
2023/05/05 00:11:48;;;;;;;4.70;4.30;;;;;;;15.35;nan;98123.06;4994079;28;20203;-72
2023/05/05 00:14:15;;;;;;;4.80;4.20;;;;;;;15.39;nan;98122.34;4993765;28;20211;-72
2023/05/05 00:16:41;;;;;;;6.10;4.60;;;;;;;15.34;nan;98118.78;4993952;28;20237;-72
2023/05/05 00:19:08;;;;;;;7.53;4.70;;;;;;;15.33;nan;98112.56;4994027;28;20211;-72
2023/05/05 00:21:34;;;;;;;4.80;4.30;;;;;;;15.30;nan;98113.09;4993938;28;20322;-72
2023/05/05 00:24:00;;;;;;;5.37;4.10;;;;;;;15.27;nan;98113.56;4994005;28;20210;-72
2023/05/05 00:26:27;;;;;;;6.20;4.50;;;;;;;15.23;nan;98107.09;4993676;28;20223;-72
2023/05/05 00:28:53;;;;;;;6.73;4.50;;;;;;;15.22;nan;98113.50;4996395;28;20214;-72
2023/05/05 00:31:21;;;;;;;6.97;4.70;;;;;;;15.23;nan;98109.75;4997752;28;20210;-72
2023/05/05 00:33:47;;;;;;;5.63;4.50;;;;;;;15.24;nan;98114.06;4997467;28;20717;-72
2023/05/05 00:36:14;;;;;;;6.87;4.90;;;;;;;15.24;nan;98119.41;4997671;28;20604;-72
2023/05/05 00:38:40;;;;;;;5.33;4.47;;;;;;;15.23;nan;98116.97;4997343;28;20211;-72
2023/05/05 00:41:07;;;;;;;5.50;4.57;;;;;;;15.19;nan;98108.63;4997322;28;20592;-72
2023/05/05 00:43:33;;;;;;;5.80;4.83;;;;;;;15.17;nan;98115.28;4997633;28;20273;-72
2023/05/05 00:46:03;;;;;;;5.53;4.93;;;;;;;15.14;nan;98113.91;4997146;28;20579;-72
2023/05/05 00:48:30;;;;;;;8.83;5.10;;;;;;;15.10;nan;98114.66;4997436;28;20211;-72
2023/05/05 00:50:57;;;;;;;5.57;5.00;;;;;;;15.05;nan;98110.03;4997235;28;20219;-72
2023/05/05 00:53:25;;;;;;;6.70;5.13;;;;;;;15.01;nan;98113.47;4996821;28;20658;-72
2023/05/05 00:55:51;;;;;;;6.00;5.33;;;;;;;14.97;nan;98113.13;4997001;28;20593;-72
2023/05/05 00:58:18;;;;;;;7.53;5.10;;;;;;;14.97;nan;98109.66;4997116;28;20327;-72
2023/05/05 01:00:44;;;;;;;6.07;5.00;;;;;;;14.90;nan;98109.81;4997076;28;20207;-72
2023/05/05 01:03:14;;;;;;;8.40;5.30;;;;;;;14.91;nan;98111.44;4996787;28;20223;-72
2023/05/05 01:06:04;;;;;;;6.10;5.50;;;;;;;14.88;nan;98101.22;4996925;28;20227;-72
2023/05/05 01:08:36;;;;;;;7.17;5.50;;;;;;;14.85;nan;98103.56;4996707;28;20558;-72
2023/05/05 01:11:29;;;;;;;8.13;5.30;;;;;;;14.78;nan;98109.09;4996875;28;20199;-72
2023/05/05 01:14:12;;;;;;;6.33;5.70;;;;;;;14.76;nan;98108.53;4996933;28;20188;-72
2023/05/05 01:16:43;;;;;;;5.97;5.13;;;;;;;14.74;nan;98102.59;4996751;28;20227;-72
2023/05/05 01:19:49;;;;;;;6.47;5.90;;;;;;;14.70;nan;98106.81;4996943;28;20562;-72
2023/05/05 01:22:20;;;;;;;8.77;5.63;;;;;;;14.68;nan;98100.91;4996312;28;20207;-72
2023/05/05 01:25:11;;;;;;;7.40;5.33;;;;;;;14.66;nan;98099.53;4996494;28;20203;-72
2023/05/05 01:28:06;;;;;;;6.63;5.20;;;;;;;14.64;nan;98097.09;4996519;28;20195;-72
2023/05/05 01:30:51;;;;;;;6.63;5.37;;;;;;;14.64;nan;98104.28;4996359;28;20224;-72
2023/05/05 01:33:27;;;;;;;7.07;5.47;;;;;;;14.56;nan;98099.38;4996435;28;20199;-72
2023/05/05 01:35:57;;;;;;;6.50;5.80;;;;;;;14.55;nan;98098.56;4996611;28;20242;-72
2023/05/05 01:38:28;;;;;;;8.10;5.60;;;;;;;14.46;nan;98100.00;4978825;28;20219;-72
2023/05/05 01:41:12;;;;;;;5.67;5.17;;;;;;;14.44;nan;98101.31;4979374;28;20191;-72
2023/05/05 01:43:42;;;;;;;7.80;4.97;;;;;;;14.42;nan;98098.84;4996137;28;20223;-72
2023/05/05 01:46:09;;;;;;;6.20;4.67;;;;;;;14.43;nan;98100.47;4996419;28;20234;-72
2023/05/05 01:48:36;;;;;;;5.70;5.17;;;;;;;14.43;nan;98097.00;4996364;28;20210;-72
2023/05/05 01:51:05;;;;;;;6.03;5.20;;;;;;;14.47;nan;98098.16;4996308;28;20208;-72
2023/05/05 01:53:33;;;;;;;5.33;4.83;;;;;;;14.45;nan;98097.56;4995972;28;20658;-72
2023/05/05 01:56:00;;;;;;;6.60;4.83;;;;;;;14.46;nan;98101.84;4995923;28;20227;-72
2023/05/05 01:58:29;;;;;;;5.67;5.17;;;;;;;14.47;nan;98093.59;4995869;28;20233;-72
2023/05/05 02:00:57;;;;;;;6.37;4.77;;;;;;;14.49;nan;98098.72;4978245;28;20584;-72
2023/05/05 02:03:25;;;;;;;5.90;5.23;;;;;;;14.54;nan;98098.78;4995775;28;20612;-72
2023/05/05 02:05:53;;;;;;;5.33;4.87;;;;;;;14.54;nan;98096.94;4995578;28;20718;-72
2023/05/05 02:08:21;;;;;;;7.60;5.03;;;;;;;14.55;nan;98109.25;4995431;28;20219;-72
2023/05/05 02:10:49;;;;;;;7.17;4.70;;;;;;;14.54;nan;98098.78;4996085;28;20207;-72
2023/05/05 02:13:17;;;;;;;6.27;4.90;;;;;;;14.57;nan;98106.34;4995923;28;20294;-72
2023/05/05 02:15:44;;;;;;;6.50;4.93;;;;;;;14.50;nan;98097.66;4995444;28;20227;-72
2023/05/05 02:18:12;;;;;;;7.43;4.93;;;;;;;14.50;nan;98100.31;4995773;28;20203;-72
2023/05/05 02:20:39;;;;;;;6.23;4.80;;;;;;;14.51;nan;98104.63;4995630;28;20215;-72
2023/05/05 02:23:06;;;;;;;7.07;5.17;;;;;;;14.50;nan;98103.81;4995300;28;20702;-72
2023/05/05 02:25:41;;;;;;;7.07;5.43;;;;;;;14.51;nan;98107.31;4995599;28;20235;-72
2023/05/05 02:28:20;;;;;;;6.30;5.40;;;;;;;14.49;nan;98118.25;4995718;28;20202;-72
2023/05/05 02:31:07;;;;;;;6.50;5.33;;;;;;;14.45;nan;98114.44;4995621;28;20187;-72
2023/05/05 02:33:36;;;;;;;5.87;5.00;;;;;;;14.38;nan;98116.44;4995597;28;20196;-72
2023/05/05 02:36:12;;;;;;;5.43;4.50;;;;;;;14.33;nan;98119.03;4995458;28;20231;-72
2023/05/05 02:38:43;;;;;;;7.70;5.33;;;;;;;14.32;nan;98122.75;4995504;28;20202;-72
2023/05/05 02:41:13;;;;;;;6.93;5.00;;;;;;;14.24;nan;98123.16;4995524;28;20195;-72
2023/05/05 02:43:42;;;;;;;6.13;5.20;;;;;;;14.21;nan;98117.47;4996153;28;20226;-72
2023/05/05 02:46:08;;;;;;;7.60;5.30;;;;;;;14.22;nan;98113.75;4995261;28;20238;-72
2023/05/05 02:48:35;;;;;;;5.93;5.23;;;;;;;14.13;nan;98125.84;4994874;28;20211;-72
2023/05/05 02:51:01;;;;;;;10.07;5.20;;;;;;;14.15;nan;98127.22;4994689;28;20214;-72
2023/05/05 02:53:28;;;;;;;6.03;5.40;;;;;;;14.12;nan;98126.91;4977840;28;20207;-72
2023/05/05 02:56:10;;;;;;;6.30;5.43;;;;;;;14.09;nan;98132.72;4994963;28;20227;-72
2023/05/05 02:58:51;;;;;;;7.43;5.10;;;;;;;14.05;nan;98136.91;4995120;28;20188;-72
2023/05/05 03:01:30;;;;;;;6.60;5.40;;;;;;;13.97;nan;98138.13;4995057;28;20207;-72
2023/05/05 03:04:04;;;;;;;6.37;5.60;;;;;;;14.00;nan;98126.94;4994678;28;20221;-72
2023/05/05 03:06:36;;;;;;;7.40;5.23;;;;;;;13.98;nan;98134.38;4978165;28;20277;-72
2023/05/05 03:09:10;;;;;;;5.97;5.47;;;;;;;13.99;nan;98133.34;4994682;28;20218;-72
2023/05/05 03:12:03;;;;;;;6.23;5.57;;;;;;;13.91;nan;98135.56;4994750;28;20195;-72
2023/05/05 03:14:34;;;;;;;5.90;5.40;;;;;;;13.96;nan;98139.16;4994513;28;20647;-72
2023/05/05 03:17:01;;;;;;;5.93;5.20;;;;;;;13.96;nan;98135.66;4994639;28;20231;-72
2023/05/05 03:19:30;;;;;;;6.37;5.20;;;;;;;14.04;nan;98136.13;4994559;28;20203;-72
2023/05/05 03:21:56;;;;;;;6.23;5.60;;;;;;;14.10;nan;98145.03;4994531;28;20207;-72
2023/05/05 03:24:23;;;;;;;5.83;5.33;;;;;;;14.10;nan;98135.16;4994102;28;20219;-72
2023/05/05 03:26:50;;;;;;;5.77;5.27;;;;;;;14.11;nan;98139.44;4994172;28;20227;-72
2023/05/05 03:29:16;;;;;;;5.83;5.33;;;;;;;14.07;nan;98137.50;4994458;28;20207;-72
2023/05/05 03:31:43;;;;;;;6.40;5.80;;;;;;;14.11;nan;98138.66;4994199;28;20211;-75
2023/05/05 03:34:09;;;;;;;5.90;5.30;;;;;;;14.04;nan;98128.09;4994148;28;20203;-75
2023/05/05 03:36:36;;;;;;;6.23;5.60;;;;;;;13.97;nan;98137.31;4994114;28;20227;-75
2023/05/05 03:39:02;;;;;;;5.57;4.97;;;;;;;14.00;nan;98140.31;4994101;28;20214;-75
2023/05/05 03:41:28;;;;;;;5.97;5.37;;;;;;;13.99;nan;98143.22;4994051;28;20299;-75
2023/05/05 03:43:55;;;;;;;5.77;5.27;;;;;;;14.02;nan;98135.53;4993663;28;20229;-75
2023/05/05 03:46:21;;;;;;;6.77;5.50;;;;;;;14.14;nan;98138.97;4994056;28;20231;-75
2023/05/05 03:48:48;;;;;;;6.57;5.57;;;;;;;14.08;nan;98134.59;4994147;28;20207;-75
2023/05/05 03:51:14;;;;;;;6.97;5.83;;;;;;;14.11;nan;98128.75;4994091;28;20211;-75
2023/05/05 03:53:41;;;;;;;7.23;5.70;;;;;;;14.18;nan;98142.81;4993853;28;20689;-75
2023/05/05 03:56:07;;;;;;;6.47;5.73;;;;;;;14.17;nan;98137.69;4994103;28;20714;-75
2023/05/05 03:58:34;;;;;;;6.50;5.87;;;;;;;14.16;nan;98141.41;4993833;28;20222;-75
2023/05/05 04:01:00;;;;;;;6.60;5.80;;;;;;;14.12;nan;98146.44;4993696;28;20663;-75
2023/05/05 04:03:27;;;;;;;5.87;5.27;;;;;;;14.12;nan;98134.91;4992537;28;20223;-75
2023/05/05 04:05:53;;;;;;;8.00;5.67;;;;;;;14.11;nan;98136.78;4993639;28;20571;-75
2023/05/05 04:08:19;;;;;;;8.07;5.13;;;;;;;14.12;nan;98146.44;4993656;28;20590;-75
2023/05/05 04:10:46;;;;;;;6.17;5.57;;;;;;;14.08;nan;98137.28;4993761;28;20246;-75
2023/05/05 04:13:12;;;;;;;8.93;6.37;;;;;;;14.10;nan;98143.19;4993676;28;20207;-75
2023/05/05 04:15:44;;;;;;;8.03;6.27;;;;;;;14.08;nan;98139.94;4993400;28;20226;-75
2023/05/05 04:18:10;;;;;;;7.57;6.30;;;;;;;14.06;nan;98144.69;4994420;28;20195;-75
2023/05/05 04:20:37;;;;;;;7.67;6.20;;;;;;;14.08;nan;98144.47;4993388;28;20218;-75
2023/05/05 04:23:03;;;;;;;6.20;5.60;;;;;;;14.14;nan;98148.84;4993274;28;20721;-75
2023/05/05 04:25:29;;;;;;;7.63;6.27;;;;;;;14.12;nan;98137.59;4993671;28;20227;-75
2023/05/05 04:27:56;;;;;;;8.50;7.00;;;;;;;14.24;nan;98136.53;4993457;28;20233;-75
2023/05/05 04:30:22;;;;;;;9.10;6.50;;;;;;;14.25;nan;98132.78;4993859;28;20211;-75
2023/05/05 04:32:48;;;;;;;8.60;6.80;;;;;;;14.28;nan;98137.66;4993515;28;20214;-75
2023/05/05 04:35:15;;;;;;;6.93;6.33;;;;;;;14.30;nan;98132.09;4993311;28;20227;-75
2023/05/05 04:37:41;;;;;;;8.13;6.73;;;;;;;14.32;nan;98138.81;4993281;28;20674;-75
2023/05/05 04:40:09;;;;;;;9.37;6.57;;;;;;;14.34;nan;98143.94;4992958;28;20689;-75
2023/05/05 04:42:35;;;;;;;7.20;6.47;;;;;;;14.36;nan;98150.66;4992866;28;20258;-75
2023/05/05 04:45:02;;;;;;;9.00;6.63;;;;;;;14.30;nan;98154.25;4992738;28;20222;-75
2023/05/05 04:47:28;;;;;;;8.50;6.80;;;;;;;14.38;nan;98161.91;4992552;28;20562;-75
2023/05/05 04:49:55;;;;;;;7.20;6.47;;;;;;;14.40;nan;98154.47;4993387;28;20214;-75
2023/05/05 04:52:22;;;;;;;7.77;6.70;;;;;;;14.45;nan;98164.44;4993485;28;20258;-75
2023/05/05 04:54:48;;;;;;;7.80;7.00;;;;;;;14.45;nan;98157.25;4993466;28;20215;-75
2023/05/05 04:57:15;;;;;;;7.30;6.57;;;;;;;14.49;nan;98162.91;4993004;28;20222;-75
2023/05/05 04:59:41;;;;;;;8.57;6.70;;;;;;;14.50;nan;98160.00;4993184;28;20666;-75
2023/05/05 05:02:07;;;;;;;11.87;6.40;;;;;;;14.60;nan;98167.41;4992949;28;20670;-75
2023/05/05 05:04:34;;;;;;;8.43;6.80;;;;;;;14.66;nan;98164.53;4993122;28;20586;-75
2023/05/05 05:07:01;;;;;;;9.63;7.50;;;;;;;14.74;nan;98172.19;4992775;28;20545;-75
2023/05/05 05:09:27;;;;;;;10.57;7.57;;;;;;;14.85;nan;98174.00;4993095;28;20274;-75
2023/05/05 05:11:53;;;;;;;8.50;7.67;;;;;;;14.97;nan;98173.91;4993292;28;20230;-75
2023/05/05 05:14:20;;;;;;;8.00;7.20;;;;;;;15.04;nan;98177.22;4994835;28;20203;-75
2023/05/05 05:16:49;;;;;;;7.97;7.00;;;;;;;15.14;nan;98175.50;4996441;28;20232;-75
2023/05/05 05:19:16;;;;;;;9.67;6.97;;;;;;;15.31;nan;98187.03;4996740;28;20258;-76
2023/05/05 05:21:42;;;;;;;9.13;7.17;;;;;;;15.23;nan;98190.09;4996408;28;20283;-76
2023/05/05 05:24:10;;;;;;;8.97;6.97;;;;;;;15.31;nan;98184.34;4996637;28;20590;-76
2023/05/05 05:26:36;;;;;;;7.80;6.77;;;;;;;15.22;nan;98185.81;4995690;28;20637;-76
2023/05/05 05:29:04;;;;;;;8.03;6.83;;;;;;;15.18;nan;98183.84;4996351;28;20211;-76
2023/05/05 05:31:30;;;;;;;7.27;6.57;;;;;;;15.07;nan;98190.91;4996470;28;20214;-76
2023/05/05 05:33:57;;;;;;;9.10;6.47;;;;;;;15.05;nan;98187.69;4996358;28;20199;-76
2023/05/05 05:36:23;;;;;;;9.47;6.50;;;;;;;15.05;nan;98195.72;4996014;28;20235;-76
2023/05/05 05:38:50;;;;;;;7.03;6.33;;;;;;;14.99;nan;98186.00;4996228;28;20213;-76
2023/05/05 05:41:16;;;;;;;8.50;6.43;;;;;;;14.95;nan;98194.75;4996178;28;20267;-75
2023/05/05 05:43:42;;;;;;;9.13;6.20;;;;;;;14.93;nan;98192.31;4995916;28;20311;-76
2023/05/05 05:46:09;;;;;;;7.80;6.63;;;;;;;14.94;nan;98196.63;4996028;28;20234;-76
2023/05/05 05:48:35;;;;;;;9.87;7.97;;;;;;;15.05;nan;98194.91;4996215;28;20215;-76
2023/05/05 05:51:01;;;;;;;8.83;7.33;;;;;;;15.19;nan;98205.03;4996118;28;20211;-76
2023/05/05 05:53:28;;;;;;;8.13;6.90;;;;;;;15.47;nan;98194.25;4996134;28;20254;-76
2023/05/05 05:55:54;;;;;;;10.10;7.07;;;;;;;15.69;nan;98199.66;4995946;28;20255;-76
2023/05/05 05:58:21;;;;;;;11.20;7.00;;;;;;;15.83;nan;98207.06;4996018;28;20210;-76
2023/05/05 06:00:48;;;;;;;9.00;6.87;;;;;;;16.04;nan;98210.81;4995363;28;20211;-76
2023/05/05 06:03:15;;;;;;;12.57;7.23;;;;;;;16.45;nan;98210.25;4995463;28;20227;-76
2023/05/05 06:05:41;;;;;;;10.70;7.40;;;;;;;16.47;nan;98211.63;4995196;28;20235;-76
2023/05/05 06:08:08;;;;;;;10.60;7.27;;;;;;;16.66;nan;98209.41;4995136;28;20222;-76
2023/05/05 06:10:34;;;;;;;9.00;7.17;;;;;;;16.68;nan;98204.56;4995324;28;20302;-76
2023/05/05 06:13:00;;;;;;;8.80;7.10;;;;;;;16.66;nan;98201.34;4995072;28;20207;-76
2023/05/05 06:15:26;;;;;;;9.33;7.10;;;;;;;16.43;nan;98205.16;4994876;28;20227;-76
2023/05/05 06:17:53;;;;;;;9.23;7.17;;;;;;;16.41;nan;98211.81;4995237;28;20214;-76
2023/05/05 06:20:20;;;;;;;8.97;6.70;;;;;;;16.39;nan;98201.31;4995161;28;20230;-76
2023/05/05 06:22:46;;;;;;;8.70;6.83;;;;;;;16.43;nan;98210.53;4994950;28;20212;-76
2023/05/05 06:25:12;;;;;;;9.57;6.60;;;;;;;16.56;nan;98212.00;4993609;28;20231;-74
2023/05/05 06:27:39;;;;;;;8.90;6.97;;;;;;;16.68;nan;98212.63;4995043;28;20207;-73
2023/05/05 06:30:08;;;;;;;10.10;6.77;;;;;;;16.76;nan;98213.00;4995345;28;20293;-74
2023/05/05 06:32:34;;;;;;;9.10;6.90;;;;;;;16.86;nan;98206.91;4994768;28;20218;-73
2023/05/05 06:35:01;;;;;;;10.17;6.50;;;;;;;16.92;nan;98206.69;4994563;28;20663;-72
2023/05/05 06:37:27;;;;;;;11.63;7.17;;;;;;;17.15;nan;98202.88;4994964;28;20211;-72
2023/05/05 06:39:53;;;;;;;12.80;7.40;;;;;;;17.35;nan;98214.56;4995299;28;20290;-72
2023/05/05 06:42:20;;;;;;;13.83;7.90;;;;;;;17.51;nan;98213.63;4994429;28;20210;-72
2023/05/05 06:44:46;;;;;;;15.93;7.70;;;;;;;17.94;nan;98223.28;4994900;28;20223;-72
2023/05/05 06:47:13;;;;;;;12.83;7.47;;;;;;;17.77;nan;98215.41;4995132;28;20314;-72
2023/05/05 06:49:39;;;;;;;10.53;6.50;;;;;;;17.81;nan;98219.19;4995257;28;20204;-72
2023/05/05 06:52:07;;;;;;;7.43;5.77;;;;;;;17.63;nan;98218.81;4995012;28;20211;-70
2023/05/05 06:54:33;;;;;;;10.57;5.97;;;;;;;17.56;nan;98220.94;4994586;28;20199;-70
2023/05/05 06:56:59;;;;;;;9.27;5.40;;;;;;;17.58;nan;98221.47;4994433;28;20729;-71
2023/05/05 06:59:26;;;;;;;12.40;5.27;;;;;;;17.55;nan;98228.19;4994715;28;20584;-71
2023/05/05 07:01:52;;;;;;;9.80;5.43;;;;;;;17.63;nan;98232.25;4994827;28;20215;-71
2023/05/05 07:04:20;;;;;;;9.47;6.20;;;;;;;17.66;nan;98227.19;4994330;28;20594;-70
2023/05/05 07:06:46;;;;;;;9.07;6.10;;;;;;;17.60;nan;98233.59;4994496;28;20227;-70
2023/05/05 07:09:12;;;;;;;9.13;5.57;;;;;;;17.58;nan;98221.47;4994533;28;20226;-70
2023/05/05 07:11:39;;;;;;;10.07;5.40;;;;;;;17.62;nan;98236.00;4994545;28;20237;-70
2023/05/05 07:14:05;;;;;;;8.17;5.57;;;;;;;17.64;nan;98232.00;4994158;28;20211;-70
2023/05/05 07:16:33;;;;;;;9.03;5.27;;;;;;;17.70;nan;98233.66;4994087;28;20237;-70
2023/05/05 07:19:00;;;;;;;8.47;4.63;;;;;;;17.76;nan;98235.31;4994322;28;20214;-70
2023/05/05 07:21:26;;;;;;;6.60;4.10;;;;;;;17.86;nan;98234.53;4994586;28;20254;-70
2023/05/05 07:23:53;;;;;;;7.43;4.60;;;;;;;17.87;nan;98234.28;4994420;28;20235;-70
2023/05/05 07:26:19;;;;;;;6.43;3.40;;;;;;;17.83;nan;98235.88;4994094;28;20724;-70
2023/05/05 07:28:46;;;;;;;3.73;2.73;;;;;;;17.93;nan;98238.63;4994295;28;20234;-70
2023/05/05 07:31:12;;;;;;;3.97;2.73;;;;;;;17.93;nan;98241.34;4994189;28;20211;-70
2023/05/05 07:33:38;;;;;;;5.17;2.90;;;;;;;18.03;nan;98244.06;4994020;28;20230;-70
2023/05/05 07:36:05;;;;;;;4.13;2.60;;;;;;;17.99;nan;98247.53;4994176;28;20607;-70
2023/05/05 07:38:31;;;;;;;2.77;2.00;;;;;;;18.12;nan;98238.97;4994094;28;20207;-70
2023/05/05 07:40:58;;;;;;;5.63;2.83;;;;;;;18.13;nan;98243.28;4993474;28;20217;-71
2023/05/05 07:43:24;;;;;;;2.90;1.90;;;;;;;18.12;nan;98239.81;4993839;28;20211;-71
2023/05/05 07:45:50;;;;;;;4.67;2.90;;;;;;;18.13;nan;98244.09;4993855;28;20278;-71
2023/05/05 07:48:17;;;;;;;3.73;2.00;;;;;;;18.13;nan;98240.59;4993879;28;20222;-70
2023/05/05 07:50:43;;;;;;;2.13;1.80;;;;;;;18.11;nan;98237.38;4993821;28;20211;-70
2023/05/05 07:53:09;;;;;;;3.27;2.80;;;;;;;17.99;nan;98242.97;4993687;28;20685;-70
2023/05/05 07:55:36;;;;;;;4.30;3.30;;;;;;;17.97;nan;98250.47;4993545;28;20263;-70
2023/05/05 07:58:02;;;;;;;5.03;1.93;;;;;;;17.91;nan;98246.16;4994231;28;20207;-70
2023/05/05 08:00:29;;;;;;;3.07;2.00;;;;;;;17.88;nan;98256.63;4994817;28;20227;-70
2023/05/05 08:02:55;;;;;;;3.77;2.40;;;;;;;17.82;nan;98258.47;4994852;28;20590;-70
2023/05/05 08:05:22;;;;;;;3.50;3.20;;;;;;;17.72;nan;98261.09;4994442;28;20253;-70
2023/05/05 08:07:48;;;;;;;3.07;2.53;;;;;;;17.68;nan;98264.53;4994389;28;20215;-70
2023/05/05 08:10:14;;;;;;;3.73;2.00;;;;;;;17.45;nan;98256.84;4994076;28;20187;-69
2023/05/05 08:12:41;;;;;;;4.03;2.00;;;;;;;17.32;nan;98246.53;4993939;28;20199;-69
2023/05/05 08:15:07;;;;;;;2.70;1.83;;;;;;;17.29;nan;98255.09;4993472;28;20199;-70
2023/05/05 08:17:45;;;;;;;3.53;2.30;;;;;;;16.99;nan;98258.34;4993589;28;20566;-70
2023/05/05 08:20:12;;;;;;;3.83;2.60;;;;;;;16.85;nan;98259.00;4993896;28;20195;-70
2023/05/05 08:22:38;;;;;;;3.40;2.90;;;;;;;16.67;nan;98254.78;4993860;28;20225;-70
2023/05/05 08:25:05;;;;;;;3.40;2.60;;;;;;;16.66;nan;98253.19;4993298;28;20222;-70
2023/05/05 08:27:34;;;;;;;4.37;2.80;;;;;;;16.69;nan;98260.72;4992981;28;20203;-71
2023/05/05 08:30:01;;;;;;;4.00;2.70;;;;;;;16.73;nan;98258.34;4990809;28;20660;-71
2023/05/05 08:32:27;;;;;;;3.83;2.73;;;;;;;16.71;nan;98252.41;4993578;28;20199;-71
2023/05/05 08:34:53;;;;;;;3.60;2.77;;;;;;;16.63;nan;98263.59;4993271;28;20213;-70
2023/05/05 08:37:20;;;;;;;4.70;2.90;;;;;;;16.64;nan;98259.88;4993129;28;20200;-70
2023/05/05 08:39:46;;;;;;;3.03;2.77;;;;;;;16.60;nan;98259.53;4993208;28;20203;-70
2023/05/05 08:42:13;;;;;;;3.17;2.87;;;;;;;16.57;nan;98257.38;4993222;28;20199;-70
2023/05/05 08:44:39;;;;;;;5.53;3.33;;;;;;;16.67;nan;98256.66;4990967;28;20267;-70
2023/05/05 08:47:06;;;;;;;3.60;3.30;;;;;;;16.80;nan;98264.31;4993271;28;20736;-70
2023/05/05 08:49:42;;;;;;;5.43;3.23;;;;;;;16.97;nan;98262.34;4995739;28;20559;-71
2023/05/05 08:52:11;;;;;;;6.17;3.27;;;;;;;17.21;nan;98259.06;4995711;28;20195;-70
2023/05/05 08:54:43;;;;;;;4.27;3.00;;;;;;;17.46;nan;98259.28;4979810;28;20196;-70
2023/05/05 08:57:10;;;;;;;3.67;2.80;;;;;;;17.52;nan;98263.66;4978733;28;20690;-75
2023/05/05 08:59:38;;;;;;;3.47;2.30;;;;;;;17.62;nan;98263.72;4995590;28;20218;-75
2023/05/05 09:02:05;;;;;;;3.73;2.63;;;;;;;17.70;nan;98262.44;4996874;28;20689;-75
2023/05/05 09:04:31;;;;;;;3.60;2.47;;;;;;;17.87;nan;98260.38;4996655;28;20223;-75
2023/05/05 09:06:58;;;;;;;5.87;3.00;;;;;;;17.92;nan;98263.09;4996638;28;20539;-75
2023/05/05 09:09:25;;;;;;;4.80;2.70;;;;;;;18.03;nan;98270.97;4996395;28;20211;-75
2023/05/05 09:11:52;;;;;;;2.67;2.47;;;;;;;18.02;nan;98265.84;4997385;28;20207;-75
2023/05/05 09:14:18;;;;;;;3.30;2.50;;;;;;;18.08;nan;98262.91;4996805;28;20254;-75
2023/05/05 09:16:45;;;;;;;5.60;2.37;;;;;;;18.15;nan;98258.09;4996824;28;20227;-75
2023/05/05 09:19:11;;;;;;;2.93;2.50;;;;;;;18.27;nan;98263.28;4996848;28;20207;-75
2023/05/05 09:21:47;;;;;;;2.53;2.30;;;;;;;18.38;nan;98260.41;4996379;28;20211;-75
2023/05/05 09:24:14;;;;;;;3.47;2.70;;;;;;;18.39;nan;98262.03;4996742;28;20207;-75
2023/05/05 09:26:45;;;;;;;4.00;2.37;;;;;;;18.40;nan;98265.50;4996293;28;20234;-75
2023/05/05 09:29:18;;;;;;;4.77;2.67;;;;;;;18.47;nan;98253.44;4996182;28;20211;-75
2023/05/05 09:32:04;;;;;;;3.63;2.60;;;;;;;18.49;nan;98245.91;4996426;28;20211;-75
2023/05/05 09:34:32;;;;;;;4.20;2.43;;;;;;;18.52;nan;98245.38;4996773;28;20192;-75
2023/05/05 09:36:59;;;;;;;3.30;2.40;;;;;;;18.60;nan;98244.03;4996002;28;20240;-73
2023/05/05 09:39:25;;;;;;;2.80;2.47;;;;;;;18.62;nan;98248.09;4996475;28;20310;-73
2023/05/05 09:41:51;;;;;;;3.63;2.50;;;;;;;18.61;nan;98235.72;4995915;28;20686;-73
2023/05/05 09:44:33;;;;;;;3.80;2.70;;;;;;;18.75;nan;98242.22;4996268;28;20227;-73
2023/05/05 09:46:59;;;;;;;4.00;2.57;;;;;;;18.78;nan;98235.47;4995985;28;20621;-73
2023/05/05 09:49:26;;;;;;;2.60;2.20;;;;;;;18.92;nan;98241.97;4996213;28;20219;-73
2023/05/05 09:51:53;;;;;;;4.83;2.47;;;;;;;19.23;nan;98232.84;4996197;28;20207;-73
2023/05/05 09:54:27;;;;;;;3.50;2.40;;;;;;;19.92;nan;98238.41;4996276;28;20215;-73
2023/05/05 09:56:57;;;;;;;3.23;2.27;;;;;;;19.59;nan;98239.84;4995865;28;20228;-73
2023/05/05 09:59:24;;;;;;;2.67;2.43;;;;;;;19.73;nan;98239.00;4995607;28;20214;-73
2023/05/05 10:01:51;;;;;;;2.70;2.50;;;;;;;19.37;nan;98233.94;4994336;28;20204;-73
2023/05/05 10:04:25;;;;;;;4.10;2.20;;;;;;;19.68;nan;98240.91;4995465;28;20227;-73
2023/05/05 10:06:52;;;;;;;2.83;1.90;;;;;;;19.67;nan;98230.38;4995186;28;20239;-73
2023/05/05 10:09:18;;;;;;;3.20;1.97;;;;;;;19.77;nan;98233.88;4995240;28;20575;-73
2023/05/05 10:11:46;;;;;;;3.77;2.10;;;;;;;19.53;nan;98228.25;4996630;28;20207;-73
2023/05/05 10:14:16;;;;;;;3.13;1.90;;;;;;;19.55;nan;98227.97;4995601;28;20220;-73
2023/05/05 10:16:51;;;;;;;5.03;2.13;;;;;;;19.53;nan;98227.44;4996232;28;20236;-73
2023/05/05 10:19:23;;;;;;;2.33;2.13;;;;;;;19.24;nan;98224.50;4996018;28;20215;-73
2023/05/05 10:21:52;;;;;;;6.17;2.20;;;;;;;19.16;nan;98227.69;4995453;28;20282;-73
2023/05/05 10:24:36;;;;;;;3.20;2.03;;;;;;;19.06;nan;98225.00;4995382;28;20207;-73
2023/05/05 10:27:10;;;;;;;3.90;2.10;;;;;;;19.00;nan;98225.28;4994747;28;20714;-73
2023/05/05 10:29:50;;;;;;;3.17;1.90;;;;;;;18.99;nan;98212.84;4995180;28;20196;-73
2023/05/05 10:32:30;;;;;;;2.67;1.77;;;;;;;19.00;nan;98219.88;4979775;28;20214;-73
2023/05/05 10:35:00;;;;;;;4.67;2.00;;;;;;;19.07;nan;98205.06;4978192;28;20218;-73
2023/05/05 10:37:28;;;;;;;2.50;1.70;;;;;;;19.09;nan;98218.28;4994956;28;20211;-73
2023/05/05 10:39:56;;;;;;;2.90;1.73;;;;;;;19.12;nan;98212.31;4995047;28;20211;-73
2023/05/05 10:42:23;;;;;;;2.93;1.70;;;;;;;19.04;nan;98210.16;4977821;28;20215;-73
2023/05/05 10:44:52;;;;;;;2.40;1.60;;;;;;;18.98;nan;98203.97;4994810;28;20227;-73
2023/05/05 10:47:20;;;;;;;2.43;1.70;;;;;;;18.97;nan;98213.16;4994923;28;20247;-73
2023/05/05 10:50:08;;;;;;;2.50;2.10;;;;;;;18.92;nan;98218.50;4994793;28;20689;-73
2023/05/05 10:52:59;;;;;;;4.40;2.17;;;;;;;18.84;nan;98207.47;4994782;28;20201;-73
2023/05/05 10:55:57;;;;;;;2.30;1.33;;;;;;;18.74;nan;98213.63;4994987;28;20586;-73
2023/05/05 10:58:36;;;;;;;1.53;1.43;;;;;;;18.75;nan;98207.19;4994693;28;20674;-73
2023/05/05 11:01:03;;;;;;;2.00;1.80;;;;;;;18.75;nan;98201.81;4994978;28;20207;-73
2023/05/05 11:03:30;;;;;;;2.50;1.80;;;;;;;18.79;nan;98180.53;4994778;28;20214;-73
2023/05/05 11:06:06;;;;;;;2.30;1.47;;;;;;;18.79;nan;98178.66;4994305;28;20725;-73
2023/05/05 11:08:40;;;;;;;1.73;1.40;;;;;;;18.85;nan;98180.25;4994747;28;20241;-73
2023/05/05 11:11:09;;;;;;;1.80;1.50;;;;;;;19.06;nan;98176.50;4994258;28;20201;-73
2023/05/05 11:13:36;;;;;;;1.83;1.73;;;;;;;19.05;nan;98179.47;4994120;28;20203;-73
2023/05/05 11:16:02;;;;;;;1.60;1.50;;;;;;;19.04;nan;98178.63;4994567;28;20321;-73
2023/05/05 11:18:34;;;;;;;2.93;1.30;;;;;;;19.13;nan;98171.63;4994574;28;20243;-73
2023/05/05 11:21:17;;;;;;;1.80;1.70;;;;;;;19.16;nan;98172.97;4994492;28;20199;-73
2023/05/05 11:23:53;;;;;;;2.10;1.70;;;;;;;19.17;nan;98163.81;4994649;28;20199;-73
2023/05/05 11:26:49;;;;;;;3.07;1.90;;;;;;;19.29;nan;98151.72;4994237;28;20234;-73
2023/05/05 11:29:16;;;;;;;2.70;1.90;;;;;;;19.52;nan;98159.22;4994070;28;20654;-73
2023/05/05 11:31:42;;;;;;;1.57;1.40;;;;;;;19.51;nan;98165.66;4994279;28;20579;-73
2023/05/05 11:34:27;;;;;;;2.33;1.40;;;;;;;19.49;nan;98162.44;4993999;28;20222;-73
2023/05/05 11:37:07;;;;;;;3.23;1.50;;;;;;;19.73;nan;98172.63;4993956;28;20227;-73
2023/05/05 11:40:02;;;;;;;1.80;1.50;;;;;;;19.88;nan;98159.09;4994013;28;20202;-73
2023/05/05 11:42:29;;;;;;;2.80;1.93;;;;;;;20.20;nan;98156.81;4993981;28;20204;-73
2023/05/05 11:44:56;;;;;;;1.93;1.47;;;;;;;20.28;nan;98153.53;4993364;28;20238;-76
2023/05/05 11:47:22;;;;;;;4.00;1.70;;;;;;;20.49;nan;98158.56;4993260;28;20218;-76
2023/05/05 11:49:49;;;;;;;1.87;1.50;;;;;;;20.32;nan;98154.59;4993144;28;20207;-76
2023/05/05 11:52:15;;;;;;;1.90;1.20;;;;;;;20.31;nan;98164.63;4994076;28;20217;-76
2023/05/05 11:54:46;;;;;;;3.70;1.73;;;;;;;20.48;nan;98158.84;4994913;28;20564;-76
2023/05/05 11:57:13;;;;;;;4.93;1.80;;;;;;;20.28;nan;98161.63;4993865;28;20637;-76
2023/05/05 11:59:59;;;;;;;1.90;1.50;;;;;;;20.41;nan;98161.03;4993885;28;20207;-76